Time;durP1;ratioP1;P1;durP2;ratioP2;P2;SDS_P1;SDS_P2;PMS_P1;PMS_P2;Temp;Humidity;BMP_temperature;BMP_pressure;BME280_temperature;BME280_humidity;BME280_pressure;Samples;Min_cycle;Max_cycle;Signal;HPM_P1;HPM_P2
2021/06/16 00:00:33;;;;;;;17.17;4.07;;;;;;;11.59;68.51;100779.38;5064473;28;20231;-67
2021/06/16 00:02:58;;;;;;;14.50;3.40;;;;;;;11.61;68.01;100782.78;5063046;28;20060;-67
2021/06/16 00:05:27;;;;;;;11.80;3.08;;;;;;;11.55;68.75;100775.03;5064363;28;20027;-67
2021/06/16 00:07:53;;;;;;;9.95;3.30;;;;;;;11.53;68.76;100771.59;5064254;28;20036;-67
2021/06/16 00:10:21;;;;;;;13.10;3.95;;;;;;;11.46;68.84;100775.09;5064199;28;20025;-67
2021/06/16 00:12:47;;;;;;;14.30;3.38;;;;;;;11.42;69.03;100783.81;5064133;28;20477;-66
2021/06/16 00:15:26;;;;;;;10.60;3.83;;;;;;;11.37;69.16;100791.63;5046250;28;20104;-66
2021/06/16 00:17:51;;;;;;;12.57;3.95;;;;;;;11.30;69.23;100784.72;5064135;28;20113;-67
2021/06/16 00:20:17;;;;;;;17.63;3.22;;;;;;;11.27;69.42;100789.09;5064126;28;20053;-67
2021/06/16 00:22:42;;;;;;;14.98;3.80;;;;;;;11.21;69.62;100793.44;5063893;28;20530;-67
2021/06/16 00:25:08;;;;;;;17.13;3.58;;;;;;;11.18;69.72;100781.34;5064127;28;20404;-67
2021/06/16 00:27:33;;;;;;;11.80;3.65;;;;;;;11.13;70.06;100783.94;5064107;28;20025;-67
2021/06/16 00:29:59;;;;;;;13.10;3.72;;;;;;;11.11;70.29;100784.81;5063998;28;20088;-67
2021/06/16 00:32:24;;;;;;;16.60;4.10;;;;;;;11.10;70.50;100780.50;5062413;28;20325;-67
2021/06/16 00:34:49;;;;;;;15.48;3.25;;;;;;;11.05;70.68;100790.91;5063974;28;20108;-67
2021/06/16 00:37:15;;;;;;;14.35;4.00;;;;;;;11.11;70.80;100793.50;5062497;28;20037;-67
2021/06/16 00:39:40;;;;;;;9.63;4.10;;;;;;;11.13;70.95;100791.72;5063850;28;20358;-67
2021/06/16 00:42:07;;;;;;;12.25;3.55;;;;;;;11.13;71.21;100793.47;5061584;28;20040;-67
2021/06/16 00:44:32;;;;;;;10.75;3.25;;;;;;;11.13;71.35;100783.09;5063723;28;20037;-67
2021/06/16 00:46:58;;;;;;;13.38;3.78;;;;;;;11.13;71.43;100783.09;5063731;28;20032;-67
2021/06/16 00:49:23;;;;;;;7.68;3.53;;;;;;;11.12;71.43;100792.59;5063737;28;20036;-65
2021/06/16 00:51:49;;;;;;;12.00;3.47;;;;;;;11.12;71.42;100781.34;5063626;28;20101;-66
2021/06/16 00:54:14;;;;;;;17.48;3.90;;;;;;;11.11;70.97;100777.91;5063405;28;20049;-66
2021/06/16 00:56:42;;;;;;;13.23;3.42;;;;;;;11.11;71.22;100792.63;5063577;28;20029;-66
2021/06/16 00:59:08;;;;;;;17.25;3.50;;;;;;;11.10;71.45;100802.13;5063414;28;20036;-67
2021/06/16 01:01:43;;;;;;;16.13;3.83;;;;;;;11.05;71.53;100816.03;5063648;28;20433;-66
2021/06/16 01:04:15;;;;;;;11.02;3.80;;;;;;;11.03;71.83;100800.44;5063865;28;20041;-66
2021/06/16 01:06:48;;;;;;;10.32;3.40;;;;;;;11.07;71.89;100799.56;5063301;28;20021;-67
2021/06/16 01:09:19;;;;;;;11.75;3.67;;;;;;;11.00;71.90;100792.66;5063359;28;20092;-67
2021/06/16 01:12:10;;;;;;;11.70;3.65;;;;;;;11.00;72.15;100803.06;5063253;28;20021;-67
2021/06/16 01:15:01;;;;;;;13.15;3.80;;;;;;;10.96;72.39;100783.16;5045229;28;20025;-67
2021/06/16 01:17:33;;;;;;;6.57;3.80;;;;;;;10.95;72.48;100784.00;5062166;28;20057;-67
2021/06/16 01:19:59;;;;;;;13.43;4.00;;;;;;;10.95;72.70;100794.41;5063206;28;20254;-67
2021/06/16 01:22:44;;;;;;;15.88;3.58;;;;;;;10.93;72.76;100789.22;5063050;28;20051;-67
2021/06/16 01:25:17;;;;;;;16.70;3.83;;;;;;;10.96;72.89;100790.97;5063354;28;20021;-67
2021/06/16 01:27:43;;;;;;;12.90;3.35;;;;;;;10.86;73.06;100771.94;5062967;28;20025;-65
2021/06/16 01:30:09;;;;;;;17.38;3.55;;;;;;;10.95;72.96;100784.00;5063224;28;20031;-66
2021/06/16 01:32:35;;;;;;;12.00;3.38;;;;;;;10.99;72.89;100778.81;5045283;28;20036;-66
2021/06/16 01:35:01;;;;;;;18.45;4.15;;;;;;;10.98;72.71;100781.41;5063121;28;20044;-66
2021/06/16 01:37:27;;;;;;;12.88;3.90;;;;;;;10.93;72.65;100765.00;5062995;28;20025;-66
2021/06/16 01:39:54;;;;;;;19.75;3.92;;;;;;;10.97;72.62;100772.78;5063303;28;20480;-66
2021/06/16 01:42:22;;;;;;;19.02;4.28;;;;;;;10.92;72.31;100769.31;5063035;28;20076;-66
2021/06/16 01:44:51;;;;;;;14.30;3.67;;;;;;;10.95;72.51;100779.69;5061781;28;20032;-66
2021/06/16 01:47:20;;;;;;;11.25;3.30;;;;;;;10.88;72.98;100777.97;5044576;28;20025;-66
2021/06/16 01:49:48;;;;;;;12.02;3.88;;;;;;;10.86;73.19;100775.38;5062949;28;20111;-66
2021/06/16 01:52:17;;;;;;;18.58;4.38;;;;;;;10.82;73.00;100771.09;5062983;28;20024;-66
2021/06/16 01:54:43;;;;;;;16.35;3.78;;;;;;;10.80;73.13;100772.81;5065934;28;20065;-66
2021/06/16 01:57:10;;;;;;;15.18;4.07;;;;;;;10.82;72.93;100776.28;5066877;28;20036;-66
2021/06/16 01:59:41;;;;;;;15.73;4.15;;;;;;;10.82;73.11;100773.69;5067070;28;20032;-66
2021/06/16 02:02:06;;;;;;;17.30;4.30;;;;;;;10.81;73.03;100766.75;5066893;28;20028;-66
2021/06/16 02:04:33;;;;;;;14.77;3.83;;;;;;;10.77;73.35;100768.50;5066778;28;20040;-66
2021/06/16 02:07:05;;;;;;;12.60;3.88;;;;;;;10.78;73.09;100753.78;5066627;28;20052;-65
2021/06/16 02:09:33;;;;;;;18.15;4.35;;;;;;;10.77;73.30;100765.91;5066891;28;20032;-66
2021/06/16 02:11:59;;;;;;;13.75;3.72;;;;;;;10.78;73.15;100772.81;5066811;28;20334;-67
2021/06/16 02:14:24;;;;;;;13.05;4.07;;;;;;;10.73;73.32;100760.72;5065175;28;20044;-66
2021/06/16 02:16:56;;;;;;;13.57;3.55;;;;;;;10.73;73.21;100764.19;5066616;28;20096;-67
2021/06/16 02:19:26;;;;;;;10.43;4.05;;;;;;;10.70;73.64;100764.22;5066564;28;20052;-67
2021/06/16 02:21:56;;;;;;;13.05;3.65;;;;;;;10.69;73.74;100764.22;5066455;28;20033;-67
2021/06/16 02:24:23;;;;;;;14.90;4.13;;;;;;;10.70;73.72;100763.34;5048455;28;20048;-67
2021/06/16 02:26:49;;;;;;;15.05;4.65;;;;;;;10.68;73.83;100763.34;5066443;28;20025;-65
2021/06/16 02:29:15;;;;;;;13.95;4.53;;;;;;;10.70;74.08;100771.13;5066238;28;20017;-66
2021/06/16 02:31:42;;;;;;;14.27;3.67;;;;;;;10.75;74.08;100770.22;5066110;28;20085;-66
2021/06/16 02:34:08;;;;;;;15.35;3.45;;;;;;;10.81;74.10;100777.16;5066233;28;20079;-67
2021/06/16 02:36:38;;;;;;;11.30;3.85;;;;;;;10.86;74.39;100772.78;5066136;28;20033;-67
2021/06/16 02:39:08;;;;;;;18.70;4.78;;;;;;;10.86;74.34;100767.59;5066228;28;20025;-66
2021/06/16 02:41:34;;;;;;;15.57;3.70;;;;;;;10.91;74.26;100775.38;5064819;28;20032;-66
2021/06/16 02:44:00;;;;;;;10.75;3.42;;;;;;;10.93;74.19;100773.63;5066141;28;20423;-67
2021/06/16 02:46:29;;;;;;;16.83;4.28;;;;;;;10.92;74.13;100782.31;5047803;28;20089;-66
2021/06/16 02:48:57;;;;;;;6.97;2.75;;;;;;;10.94;74.44;100777.97;5065864;28;20032;-67
2021/06/16 02:51:23;;;;;;;10.57;3.97;;;;;;;10.97;74.53;100787.47;5065776;28;20108;-66
2021/06/16 02:53:50;;;;;;;20.45;4.32;;;;;;;11.01;74.47;100778.78;5065675;28;20049;-65
2021/06/16 02:56:17;;;;;;;15.07;3.03;;;;;;;11.04;74.52;100791.78;5065823;28;20025;-66
2021/06/16 02:58:46;;;;;;;13.13;3.10;;;;;;;11.03;74.30;100788.34;5065707;28;20021;-66
2021/06/16 03:01:17;;;;;;;12.40;3.08;;;;;;;11.08;74.50;100783.09;5065615;28;20396;-67
2021/06/16 03:03:51;;;;;;;13.98;3.53;;;;;;;11.10;74.26;100801.28;5065351;28;20021;-67
2021/06/16 03:06:19;;;;;;;9.65;3.50;;;;;;;11.14;74.21;100795.19;5046749;28;20052;-66
2021/06/16 03:08:48;;;;;;;9.88;3.40;;;;;;;11.18;74.15;100801.25;5065438;28;20080;-66
2021/06/16 03:11:15;;;;;;;10.60;2.85;;;;;;;11.20;74.30;100802.97;5047339;28;20024;-67
2021/06/16 03:13:43;;;;;;;9.70;2.63;;;;;;;11.20;74.34;100778.72;5065357;28;20036;-68
2021/06/16 03:16:09;;;;;;;9.23;3.67;;;;;;;11.39;74.02;100803.75;5065579;28;20096;-66
2021/06/16 03:18:36;;;;;;;6.00;2.90;;;;;;;11.40;73.79;100802.88;5065110;28;20017;-66
2021/06/16 03:21:01;;;;;;;13.00;3.35;;;;;;;11.43;73.85;100801.13;5047223;28;20021;-66
2021/06/16 03:23:28;;;;;;;13.02;3.45;;;;;;;11.51;73.70;100810.63;5065344;28;20055;-66
2021/06/16 03:25:58;;;;;;;9.38;2.90;;;;;;;11.69;73.47;100818.31;5065122;28;20032;-67
2021/06/16 03:28:26;;;;;;;21.05;3.20;;;;;;;11.82;73.25;100811.28;5064844;28;20044;-66
2021/06/16 03:30:55;;;;;;;11.68;2.85;;;;;;;12.07;73.87;100818.91;5065062;28;20025;-67
2021/06/16 03:33:21;;;;;;;6.72;2.17;;;;;;;12.54;73.06;100808.97;5065037;28;20025;-68
2021/06/16 03:35:47;;;;;;;13.35;3.10;;;;;;;12.76;71.49;100806.16;5065121;28;20072;-67
2021/06/16 03:38:14;;;;;;;7.25;2.13;;;;;;;12.89;71.19;100801.66;5064999;28;20029;-67
2021/06/16 03:40:42;;;;;;;6.78;2.05;;;;;;;13.24;70.53;100794.28;5065258;28;20533;-67
2021/06/16 03:43:07;;;;;;;11.00;2.80;;;;;;;13.42;69.03;100792.31;5064659;28;20025;-66
2021/06/16 03:45:33;;;;;;;8.20;3.25;;;;;;;13.40;68.30;100802.75;5064591;28;20036;-67
2021/06/16 03:48:01;;;;;;;8.30;2.65;;;;;;;13.26;67.62;100810.75;5063217;28;20032;-68
2021/06/16 03:50:28;;;;;;;8.95;2.47;;;;;;;13.22;68.21;100801.25;5064799;28;20048;-69
2021/06/16 03:52:55;;;;;;;9.15;2.88;;;;;;;13.25;68.03;100812.50;5065019;28;20017;-69
2021/06/16 03:55:22;;;;;;;9.70;2.58;;;;;;;13.25;67.89;100809.03;5064770;28;20124;-68
2021/06/16 03:57:48;;;;;;;14.65;2.80;;;;;;;13.61;67.95;100819.03;5064791;28;20029;-69
2021/06/16 04:00:14;;;;;;;9.95;1.98;;;;;;;14.11;67.36;100816.50;5064775;28;20529;-68
2021/06/16 04:02:40;;;;;;;7.45;2.20;;;;;;;14.81;66.61;100822.25;5063334;28;20040;-68
2021/06/16 04:05:08;;;;;;;10.90;2.40;;;;;;;15.63;64.49;100821.41;5065000;28;20028;-68
2021/06/16 04:07:35;;;;;;;8.77;1.92;;;;;;;16.18;61.50;100818.38;5064676;28;20028;-67
2021/06/16 04:10:01;;;;;;;11.00;2.42;;;;;;;16.35;60.57;100822.34;5064466;28;20381;-68
2021/06/16 04:12:28;;;;;;;9.32;1.73;;;;;;;16.59;60.14;100818.22;5063033;28;20536;-68
2021/06/16 04:14:53;;;;;;;7.95;2.00;;;;;;;16.99;59.59;100823.25;5064467;28;20350;-69
2021/06/16 04:17:20;;;;;;;10.73;2.33;;;;;;;17.04;57.84;100826.59;5064393;28;20024;-69
2021/06/16 04:19:46;;;;;;;6.85;2.00;;;;;;;16.76;56.02;100829.16;5064399;28;20028;-68
2021/06/16 04:22:11;;;;;;;8.98;2.25;;;;;;;16.29;56.62;100831.22;5064306;28;20021;-68
2021/06/16 04:24:37;;;;;;;10.50;2.42;;;;;;;16.12;58.25;100830.78;5064225;28;20494;-69
2021/06/16 04:27:03;;;;;;;10.00;1.90;;;;;;;16.51;57.18;100827.16;5064160;28;20053;-68
2021/06/16 04:29:28;;;;;;;9.52;2.28;;;;;;;16.72;56.66;100825.75;5064037;28;20044;-68
2021/06/16 04:31:55;;;;;;;9.25;1.95;;;;;;;16.78;56.70;100830.81;5064200;28;20017;-67
2021/06/16 04:34:20;;;;;;;9.35;2.10;;;;;;;16.77;55.29;100838.72;5045980;28;20477;-67
2021/06/16 04:36:45;;;;;;;9.80;2.17;;;;;;;16.49;55.77;100832.44;5064171;28;20040;-67
2021/06/16 04:39:11;;;;;;;7.07;2.03;;;;;;;16.26;56.29;100839.16;5062559;28;20021;-67
2021/06/16 04:41:36;;;;;;;10.32;2.03;;;;;;;16.10;56.58;100834.28;5045790;28;20326;-68
2021/06/16 04:44:02;;;;;;;8.43;1.92;;;;;;;16.14;56.37;100831.59;5063972;28;20088;-68
2021/06/16 04:46:27;;;;;;;5.35;1.52;;;;;;;16.40;56.98;100840.56;5045859;28;20035;-68
2021/06/16 04:48:53;;;;;;;8.52;1.80;;;;;;;17.08;56.31;100846.63;5063794;28;20017;-68
2021/06/16 04:51:18;;;;;;;8.45;2.00;;;;;;;17.91;54.31;100843.25;5063836;28;20021;-68
2021/06/16 04:53:43;;;;;;;15.05;2.80;;;;;;;18.25;51.42;100841.31;5063549;28;20045;-69
2021/06/16 04:56:09;;;;;;;6.90;1.50;;;;;;;18.44;52.82;100852.06;5064027;28;20027;-68
2021/06/16 04:58:34;;;;;;;5.30;1.92;;;;;;;18.92;50.73;100853.03;5063834;28;20013;-69
2021/06/16 05:01:00;;;;;;;5.93;1.50;;;;;;;18.77;50.01;100857.06;5062617;28;20028;-68
2021/06/16 05:03:25;;;;;;;7.93;1.80;;;;;;;18.31;50.44;100860.38;5063570;28;20047;-68
2021/06/16 05:05:51;;;;;;;9.80;2.78;;;;;;;17.98;51.46;100865.81;5063635;28;20353;-66
2021/06/16 05:08:16;;;;;;;9.77;1.95;;;;;;;17.80;51.52;100868.09;5063437;28;20055;-68
2021/06/16 05:10:41;;;;;;;7.53;1.63;;;;;;;17.67;51.64;100867.63;5063606;28;20025;-65
2021/06/16 05:13:07;;;;;;;6.30;1.60;;;;;;;17.72;52.41;100859.59;5063762;28;20028;-66
2021/06/16 05:15:32;;;;;;;11.38;1.58;;;;;;;18.31;52.19;100855.13;5063742;28;20024;-66
2021/06/16 05:17:58;;;;;;;7.55;1.58;;;;;;;18.94;50.43;100866.97;5063561;28;20021;-67
2021/06/16 05:20:25;;;;;;;6.18;1.60;;;;;;;19.30;49.17;100870.97;5063503;28;20036;-67
2021/06/16 05:22:51;;;;;;;6.53;1.30;;;;;;;19.58;48.35;100866.41;5063229;28;20072;-66
2021/06/16 05:25:17;;;;;;;6.72;1.73;;;;;;;19.66;48.55;100863.47;5045656;28;20044;-66
2021/06/16 05:27:43;;;;;;;7.40;1.42;;;;;;;20.46;47.79;100863.78;5063141;28;20377;-65
2021/06/16 05:30:09;;;;;;;11.45;2.50;;;;;;;21.19;46.25;100854.47;5063198;28;20529;-65
2021/06/16 05:32:36;;;;;;;4.72;1.63;;;;;;;21.60;43.65;100857.88;5063106;28;20025;-65
2021/06/16 05:35:03;;;;;;;7.22;1.92;;;;;;;21.61;43.58;100859.59;5063482;28;20031;-66
2021/06/16 05:37:28;;;;;;;7.97;1.83;;;;;;;21.24;43.53;100852.47;5063177;28;20033;-66
2021/06/16 05:39:53;;;;;;;4.70;1.67;;;;;;;20.87;44.04;100862.03;5063244;28;20092;-66
2021/06/16 05:42:20;;;;;;;4.15;1.55;;;;;;;20.42;44.50;100856.91;5063367;28;20097;-68
2021/06/16 05:44:45;;;;;;;10.75;1.83;;;;;;;20.69;44.42;100861.91;5063295;28;20099;-71
2021/06/16 05:47:11;;;;;;;7.47;1.70;;;;;;;20.72;44.14;100853.03;5063084;28;20061;-70
2021/06/16 05:49:36;;;;;;;5.97;1.42;;;;;;;20.84;43.84;100849.84;5063118;28;20025;-68
2021/06/16 05:52:02;;;;;;;7.13;1.75;;;;;;;20.89;43.19;100858.41;5063327;28;20029;-69
2021/06/16 05:54:27;;;;;;;6.93;1.50;;;;;;;20.72;43.71;100869.69;5062902;28;20068;-68
2021/06/16 05:56:53;;;;;;;8.25;1.58;;;;;;;20.27;43.51;100842.63;5062935;28;20100;-68
2021/06/16 05:59:19;;;;;;;5.63;1.80;;;;;;;20.14;44.78;100874.78;5063050;28;20079;-70
2021/06/16 06:01:44;;;;;;;7.13;1.50;;;;;;;20.27;44.92;100863.72;5062896;28;20031;-69
2021/06/16 06:04:09;;;;;;;5.75;1.35;;;;;;;20.77;44.95;100859.78;5062879;28;20021;-68
2021/06/16 06:06:36;;;;;;;7.80;1.98;;;;;;;21.68;43.46;100858.34;5062881;28;20081;-69
2021/06/16 06:09:04;;;;;;;3.67;1.02;;;;;;;21.90;41.89;100826.47;5061657;28;20017;-69
2021/06/16 06:11:30;;;;;;;6.43;1.15;;;;;;;22.14;40.58;100871.13;5061615;28;20021;-69
2021/06/16 06:13:55;;;;;;;10.15;2.38;;;;;;;22.14;40.88;100862.34;5044879;28;20032;-71
2021/06/16 06:16:21;;;;;;;8.18;1.30;;;;;;;22.42;40.29;100868.88;5061637;28;20083;-69
2021/06/16 06:18:47;;;;;;;8.55;1.52;;;;;;;22.81;39.29;100868.69;5062785;28;20017;-68
2021/06/16 06:21:12;;;;;;;4.43;1.00;;;;;;;22.98;38.81;100858.06;5062738;28;20029;-68
2021/06/16 06:23:37;;;;;;;9.25;1.70;;;;;;;23.16;38.25;100881.84;5062701;28;20067;-68
2021/06/16 06:26:03;;;;;;;6.18;1.48;;;;;;;23.22;38.36;100878.00;5062882;28;20025;-72
2021/06/16 06:28:29;;;;;;;6.60;1.52;;;;;;;23.55;37.51;100889.50;5062709;28;20035;-70
2021/06/16 06:30:54;;;;;;;8.00;1.63;;;;;;;23.70;37.07;100880.69;5062641;28;20033;-71
2021/06/16 06:33:19;;;;;;;4.38;0.93;;;;;;;23.88;36.01;100877.94;5062675;28;20546;-71
2021/06/16 06:35:45;;;;;;;6.68;1.80;;;;;;;23.56;35.95;100885.91;5062729;28;20514;-72
2021/06/16 06:38:13;;;;;;;4.93;1.20;;;;;;;23.08;36.93;100884.03;5061401;28;20025;-71
2021/06/16 06:40:39;;;;;;;6.97;1.48;;;;;;;23.13;37.22;100882.84;5063690;28;20036;-70
2021/06/16 06:43:04;;;;;;;5.80;1.08;;;;;;;23.14;36.89;100879.28;5048237;28;20025;-72
2021/06/16 06:45:30;;;;;;;7.53;2.17;;;;;;;23.02;37.57;100880.78;5066468;28;20104;-72
2021/06/16 06:47:55;;;;;;;4.57;1.23;;;;;;;22.97;37.32;100893.41;5066146;28;20025;-71
2021/06/16 06:50:21;;;;;;;8.15;1.33;;;;;;;22.92;37.98;100898.09;5064849;28;20021;-71
2021/06/16 06:52:47;;;;;;;9.68;1.30;;;;;;;23.13;37.39;100895.25;5066189;28;20025;-72
2021/06/16 06:55:15;;;;;;;3.13;1.17;;;;;;;23.72;36.89;100892.03;5048094;28;20493;-71
2021/06/16 06:57:42;;;;;;;4.05;1.35;;;;;;;23.64;35.96;100895.13;5066173;28;20032;-71
2021/06/16 07:00:09;;;;;;;5.93;1.58;;;;;;;23.03;36.50;100895.72;5066183;28;20095;-66
2021/06/16 07:02:34;;;;;;;3.92;1.20;;;;;;;22.84;37.25;100900.28;5065894;28;20540;-70
2021/06/16 07:05:00;;;;;;;6.15;1.00;;;;;;;22.64;37.84;100904.81;5066043;28;20028;-71
2021/06/16 07:07:25;;;;;;;5.05;1.33;;;;;;;22.33;37.88;100899.31;5047822;28;20025;-71
2021/06/16 07:09:51;;;;;;;7.85;0.98;;;;;;;22.18;38.12;100903.56;5066001;28;20040;-71
2021/06/16 07:12:17;;;;;;;3.65;1.67;;;;;;;22.47;37.86;100882.72;5064757;28;20141;-70
2021/06/16 07:14:43;;;;;;;4.82;1.35;;;;;;;22.78;37.29;100886.44;5065949;28;20036;-71
2021/06/16 07:17:09;;;;;;;6.10;1.23;;;;;;;22.69;37.49;100892.22;5047825;28;20021;-70
2021/06/16 07:19:35;;;;;;;7.55;1.70;;;;;;;22.53;37.19;100895.63;5065473;28;20035;-71
2021/06/16 07:22:00;;;;;;;3.25;1.25;;;;;;;22.12;37.37;100896.81;5064430;28;20028;-70
2021/06/16 07:24:25;;;;;;;6.53;1.33;;;;;;;21.89;37.88;100887.34;5065615;28;20477;-71
2021/06/16 07:26:51;;;;;;;7.68;1.88;;;;;;;22.11;38.20;100879.19;5065543;28;20048;-70
2021/06/16 07:29:17;;;;;;;5.68;1.20;;;;;;;22.02;37.58;100871.72;5065477;28;20104;-71
2021/06/16 07:31:43;;;;;;;6.13;1.30;;;;;;;21.96;38.35;100883.47;5065514;28;20047;-70
2021/06/16 07:34:08;;;;;;;5.15;1.27;;;;;;;22.34;38.26;100884.28;5047438;28;20033;-70
2021/06/16 07:36:34;;;;;;;3.47;1.10;;;;;;;22.80;37.15;100882.84;5065447;28;20075;-70
2021/06/16 07:38:59;;;;;;;4.18;1.20;;;;;;;23.19;36.86;100871.09;5065498;28;20370;-70
2021/06/16 07:41:25;;;;;;;5.32;0.95;;;;;;;23.52;36.26;100872.84;5065533;28;20048;-71
2021/06/16 07:43:50;;;;;;;6.85;1.42;;;;;;;24.05;35.80;100873.44;5065491;28;20487;-72
2021/06/16 07:46:15;;;;;;;2.70;0.80;;;;;;;24.34;34.09;100889.47;5065278;28;20025;-70
2021/06/16 07:48:41;;;;;;;6.47;1.38;;;;;;;23.97;34.22;100885.34;5065037;28;20025;-70
2021/06/16 07:51:06;;;;;;;10.10;1.73;;;;;;;23.64;34.38;100889.00;5063659;28;20048;-71
2021/06/16 07:53:32;;;;;;;5.15;1.52;;;;;;;23.82;34.92;100881.78;5064757;28;20045;-70
2021/06/16 07:55:57;;;;;;;6.00;1.65;;;;;;;24.08;34.33;100873.25;5065211;28;20051;-70
2021/06/16 07:58:24;;;;;;;8.15;1.30;;;;;;;23.98;34.54;100892.34;5064919;28;20017;-70
2021/06/16 08:00:50;;;;;;;5.25;1.23;;;;;;;23.82;33.69;100899.50;5063642;28;20073;-71
2021/06/16 08:03:15;;;;;;;3.72;1.30;;;;;;;23.63;33.57;100903.16;5064828;28;20028;-69
2021/06/16 08:05:40;;;;;;;6.72;1.60;;;;;;;23.07;34.89;100901.72;5064803;28;20037;-68
2021/06/16 08:08:06;;;;;;;5.57;1.35;;;;;;;22.77;35.93;100895.31;5064873;28;20080;-71
2021/06/16 08:10:31;;;;;;;5.25;1.30;;;;;;;22.69;36.21;100892.22;5064695;28;20021;-72
2021/06/16 08:12:57;;;;;;;7.40;1.50;;;;;;;22.82;35.40;100899.50;5064606;28;20029;-71
2021/06/16 08:15:23;;;;;;;4.47;1.40;;;;;;;22.39;36.51;100906.94;5064705;28;20067;-71
2021/06/16 08:17:51;;;;;;;6.40;1.40;;;;;;;21.98;37.19;100897.44;5063332;28;20349;-71
2021/06/16 08:20:16;;;;;;;5.43;1.30;;;;;;;21.61;37.50;100886.88;5064819;28;20017;-70
2021/06/16 08:22:42;;;;;;;6.40;1.52;;;;;;;21.21;38.57;100888.72;5064488;28;20051;-70
2021/06/16 08:25:11;;;;;;;3.85;1.40;;;;;;;21.13;39.70;100894.34;5046366;28;20031;-71
2021/06/16 08:27:40;;;;;;;4.82;1.45;;;;;;;21.77;39.03;100889.63;5064121;28;20033;-72
2021/06/16 08:30:08;;;;;;;8.00;2.42;;;;;;;22.50;38.08;100863.19;5064135;28;20036;-72
2021/06/16 08:32:33;;;;;;;4.00;1.42;;;;;;;23.66;36.76;100884.44;5046426;28;20111;-72
2021/06/16 08:34:59;;;;;;;5.65;1.90;;;;;;;24.49;35.00;100880.59;5064032;28;20556;-72
2021/06/16 08:37:24;;;;;;;4.07;1.08;;;;;;;24.63;33.96;100886.88;5064299;28;20009;-71
2021/06/16 08:39:50;;;;;;;5.15;1.33;;;;;;;24.86;33.34;100887.25;5064418;28;20044;-73
2021/06/16 08:42:15;;;;;;;5.00;1.48;;;;;;;24.66;33.10;100889.34;5064480;28;20040;-72
2021/06/16 08:44:41;;;;;;;10.90;1.80;;;;;;;24.47;34.22;100893.09;5064355;28;20025;-71
2021/06/16 08:47:07;;;;;;;9.27;1.52;;;;;;;24.88;33.03;100891.53;5062709;28;20550;-72
2021/06/16 08:49:33;;;;;;;4.47;1.70;;;;;;;25.24;32.83;100891.19;5063993;28;20017;-72
2021/06/16 08:51:59;;;;;;;4.15;1.45;;;;;;;25.50;31.36;100902.78;5046014;28;20029;-72
2021/06/16 08:54:24;;;;;;;5.95;1.50;;;;;;;25.83;31.77;100906.03;5063777;28;20041;-72
2021/06/16 08:56:50;;;;;;;4.43;1.48;;;;;;;25.91;31.07;100900.22;5063900;28;20049;-72
2021/06/16 08:59:15;;;;;;;5.40;1.30;;;;;;;26.10;30.65;100899.00;5063931;28;20687;-72
2021/06/16 09:01:41;;;;;;;7.78;1.83;;;;;;;26.28;30.12;100896.06;5063856;28;20024;-73
2021/06/16 09:04:07;;;;;;;5.97;1.50;;;;;;;26.22;29.70;100890.19;5063043;28;20021;-72
2021/06/16 09:06:32;;;;;;;3.33;1.42;;;;;;;26.22;29.78;100890.19;5062494;28;20110;-72
2021/06/16 09:09:02;;;;;;;8.32;1.67;;;;;;;26.38;29.95;100899.84;5063747;28;20036;-72
2021/06/16 09:11:47;;;;;;;6.10;1.63;;;;;;;26.58;29.48;100898.47;5063716;28;20050;-73
2021/06/16 09:14:22;;;;;;;7.28;1.33;;;;;;;26.08;30.50;100892.94;5069076;22;20049;-63
2021/06/16 09:16:49;;;;;;;7.35;1.70;;;;;;;25.53;30.93;100903.56;5061649;28;20549;-62
2021/06/16 09:19:18;;;;;;;4.68;1.42;;;;;;;24.90;31.97;100893.28;5062988;28;20033;-64
2021/06/16 09:21:44;;;;;;;8.40;1.83;;;;;;;24.00;33.37;100901.09;5063665;28;20276;-63
2021/06/16 09:24:10;;;;;;;5.60;1.50;;;;;;;24.12;34.02;100903.97;5063204;28;20473;-65
2021/06/16 09:26:40;;;;;;;4.82;1.45;;;;;;;24.42;33.71;100900.50;5063438;28;20029;-63
2021/06/16 09:29:06;;;;;;;4.80;1.67;;;;;;;24.87;32.50;100908.41;5063367;28;20112;-62
2021/06/16 09:31:37;;;;;;;11.32;2.28;;;;;;;24.96;31.38;100892.88;5063270;28;20643;-62
2021/06/16 09:34:12;;;;;;;6.10;2.00;;;;;;;24.99;31.89;100893.56;5061799;28;20031;-63
2021/06/16 09:36:52;;;;;;;3.55;1.50;;;;;;;25.19;32.04;100903.91;5063193;28;20388;-63
2021/06/16 09:39:27;;;;;;;7.18;1.60;;;;;;;25.17;31.27;100890.72;5062713;28;20056;-63
2021/06/16 09:41:56;;;;;;;9.65;2.15;;;;;;;25.59;30.95;100895.19;5062962;28;20033;-63
2021/06/16 09:44:42;;;;;;;6.55;1.75;;;;;;;26.04;30.48;100904.75;5062692;28;20017;-63
2021/06/16 09:47:16;;;;;;;4.95;1.70;;;;;;;26.33;30.23;100907.28;5062766;28;20029;-63
2021/06/16 09:49:54;;;;;;;9.60;1.80;;;;;;;26.58;30.00;100911.78;5062505;28;20025;-64
2021/06/16 09:52:25;;;;;;;5.35;1.60;;;;;;;26.95;29.19;100912.84;5061410;28;20108;-63
2021/06/16 09:54:51;;;;;;;4.68;1.70;;;;;;;27.14;28.00;100911.59;5062564;28;20037;-63
2021/06/16 09:57:17;;;;;;;3.55;1.65;;;;;;;27.27;27.86;100911.56;5062683;28;20025;-63
2021/06/16 09:59:45;;;;;;;5.13;1.60;;;;;;;27.63;26.80;100920.50;5062833;28;20036;-63
2021/06/16 10:02:18;;;;;;;5.88;1.65;;;;;;;27.76;27.00;100911.63;5062876;28;20056;-63
2021/06/16 10:04:45;;;;;;;6.00;2.00;;;;;;;27.63;26.31;100915.19;5062615;28;20025;-62
2021/06/16 10:07:19;;;;;;;6.15;1.90;;;;;;;27.64;26.31;100916.00;5062892;28;20093;-62
2021/06/16 10:10:05;;;;;;;4.03;1.80;;;;;;;27.36;26.41;100913.56;5062804;28;20028;-62
2021/06/16 10:12:34;;;;;;;4.32;1.95;;;;;;;27.12;26.90;100925.00;5061508;28;20104;-62
2021/06/16 10:15:02;;;;;;;7.70;2.38;;;;;;;27.14;26.20;100920.41;5063965;28;20075;-62
2021/06/16 10:17:28;;;;;;;5.20;1.88;;;;;;;27.22;26.25;100928.72;5066657;28;20032;-62
2021/06/16 10:19:54;;;;;;;3.58;1.70;;;;;;;27.27;25.65;100919.56;5066702;28;20025;-63
2021/06/16 10:22:21;;;;;;;5.07;2.05;;;;;;;27.17;25.54;100930.00;5066425;28;20033;-63
2021/06/16 10:24:47;;;;;;;3.38;1.73;;;;;;;26.78;26.05;100920.22;5066003;28;20036;-60
2021/06/16 10:27:17;;;;;;;8.20;2.08;;;;;;;26.82;26.58;100929.69;5066229;28;20021;-61
2021/06/16 10:29:45;;;;;;;5.17;1.87;;;;;;;26.81;25.92;100935.09;5066297;28;20056;-60
2021/06/16 10:32:12;;;;;;;4.95;2.00;;;;;;;26.61;25.74;100918.72;5066326;28;20028;-62
2021/06/16 10:34:52;;;;;;;7.88;2.38;;;;;;;26.50;26.02;100926.56;5066079;28;20025;-62
2021/06/16 10:37:26;;;;;;;3.35;1.80;;;;;;;26.53;25.54;100931.69;5066343;28;20044;-61
2021/06/16 10:40:17;;;;;;;4.25;1.90;;;;;;;26.77;26.16;100920.31;5066514;28;20374;-62
2021/06/16 10:42:58;;;;;;;5.50;2.38;;;;;;;26.69;23.89;100919.06;5066237;28;20017;-62
2021/06/16 10:45:29;;;;;;;7.80;2.40;;;;;;;26.61;22.73;100919.56;5065933;28;20032;-65
2021/06/16 10:47:56;;;;;;;3.97;2.55;;;;;;;26.47;22.89;100928.47;5066271;28;20036;-65
2021/06/16 10:50:21;;;;;;;4.97;2.45;;;;;;;26.48;24.04;100922.22;5066140;28;20048;-65
2021/06/16 10:53:04;;;;;;;4.63;2.00;;;;;;;26.51;23.68;100920.28;5066220;28;20021;-63
2021/06/16 10:56:05;;;;;;;5.72;1.90;;;;;;;26.27;24.35;100915.63;5066071;28;20091;-64
2021/06/16 10:58:31;;;;;;;4.47;1.77;;;;;;;26.06;23.48;100910.78;5033400;28;20092;-65
2021/06/16 11:01:20;;;;;;;4.75;2.60;;;;;;;25.22;23.71;100917.84;5066093;28;20025;-65
2021/06/16 11:03:51;;;;;;;3.90;1.50;;;;;;;24.24;25.71;100916.53;5065917;28;20086;-64
2021/06/16 11:06:32;;;;;;;4.07;1.98;;;;;;;23.33;25.83;100927.72;5066303;28;20025;-64
2021/06/16 11:09:17;;;;;;;3.10;1.85;;;;;;;22.53;27.40;100918.56;5065696;28;20021;-64
2021/06/16 11:11:46;;;;;;;2.97;1.73;;;;;;;21.97;28.21;100922.19;5065529;28;20525;-64
2021/06/16 11:14:37;;;;;;;4.55;1.60;;;;;;;21.20;30.04;100921.34;5065584;28;20055;-64
2021/06/16 11:17:06;;;;;;;4.00;1.95;;;;;;;20.82;31.12;100925.56;5064437;28;20094;-64
2021/06/16 11:19:35;;;;;;;4.53;1.90;;;;;;;20.61;31.48;100922.91;5066047;28;20028;-64
2021/06/16 11:22:06;;;;;;;5.05;2.00;;;;;;;20.22;32.34;100928.94;5063742;28;20049;-63
2021/06/16 11:25:03;;;;;;;5.28;1.70;;;;;;;19.83;33.34;100931.28;5047608;28;20025;-65